Time;durP1;ratioP1;P1;durP2;ratioP2;P2;SDS_P1;SDS_P2;PMS_P1;PMS_P2;Temp;Humidity;BMP_temperature;BMP_pressure;BME280_temperature;BME280_humidity;BME280_pressure;Samples;Min_cycle;Max_cycle;Signal;HPM_P1;HPM_P2
2020/12/11 00:02:07;;;;;;;26.50;15.50;;;3.40;99.90;;;;;;5047313;28;21008;-65
2020/12/11 00:04:52;;;;;;;34.23;16.00;;;3.30;99.90;;;;;;5026040;28;20831;-65
2020/12/11 00:07:37;;;;;;;33.53;16.13;;;3.30;99.90;;;;;;5035421;28;20727;-66
2020/12/11 00:10:22;;;;;;;37.03;16.90;;;3.20;99.90;;;;;;5021056;28;20633;-66
2020/12/11 00:13:07;;;;;;;37.17;18.33;;;3.30;99.90;;;;;;5022948;28;21014;-66
2020/12/11 00:15:51;;;;;;;37.10;18.40;;;3.30;99.90;;;;;;5037149;28;20744;-65
2020/12/11 00:18:36;;;;;;;37.77;16.47;;;3.30;99.90;;;;;;5040829;28;20637;-68
2020/12/11 00:21:21;;;;;;;28.93;16.03;;;3.30;99.90;;;;;;5006919;28;20657;-66
2020/12/11 00:24:05;;;;;;;37.13;18.33;;;3.20;99.90;;;;;;5019597;28;21002;-65
2020/12/11 00:26:50;;;;;;;38.23;17.97;;;3.20;99.90;;;;;;5035294;28;20621;-65
2020/12/11 00:29:34;;;;;;;30.47;16.50;;;3.20;99.90;;;;;;5034983;28;20684;-65
2020/12/11 00:32:19;;;;;;;33.27;16.33;;;3.30;99.90;;;;;;5033890;28;20621;-65
2020/12/11 00:35:06;;;;;;;37.43;17.00;;;3.30;99.90;;;;;;5025191;28;21272;-65
2020/12/11 00:37:51;;;;;;;36.50;18.87;;;3.30;99.90;;;;;;5023085;28;20699;-65
2020/12/11 00:40:35;;;;;;;34.20;18.03;;;3.30;99.90;;;;;;5034289;28;20650;-65
2020/12/11 00:43:22;;;;;;;34.40;17.07;;;3.30;99.90;;;;;;5026731;28;20700;-65
2020/12/11 00:46:06;;;;;;;38.30;18.30;;;3.30;99.90;;;;;;5020269;28;21322;-65
2020/12/11 00:48:52;;;;;;;35.83;18.50;;;3.30;99.90;;;;;;5035519;28;20934;-66
2020/12/11 00:51:37;;;;;;;38.43;18.03;;;3.20;99.90;;;;;;5025168;28;20664;-65
2020/12/11 00:54:24;;;;;;;35.90;17.53;;;3.30;99.90;;;;;;5038837;28;20712;-65
2020/12/11 00:57:08;;;;;;;39.90;18.93;;;3.30;99.90;;;;;;5036755;28;21223;-65
2020/12/11 00:59:55;;;;;;;38.80;18.33;;;3.20;99.90;;;;;;5018334;28;20713;-65
2020/12/11 01:02:39;;;;;;;39.07;17.90;;;3.20;99.90;;;;;;5023181;28;20655;-65
2020/12/11 01:05:24;;;;;;;38.83;18.37;;;3.20;99.90;;;;;;5034038;28;20591;-65
2020/12/11 01:08:08;;;;;;;37.27;17.47;;;3.30;99.90;;;;;;5042418;28;20905;-65
2020/12/11 01:10:56;;;;;;;45.63;19.17;;;3.20;99.90;;;;;;5021331;28;20688;-65
2020/12/11 01:13:41;;;;;;;46.00;20.23;;;3.30;99.90;;;;;;5016409;28;20701;-65
2020/12/11 01:16:25;;;;;;;40.00;19.13;;;3.30;99.90;;;;;;5039640;28;20719;-66
2020/12/11 01:19:13;;;;;;;38.33;19.53;;;3.30;99.90;;;;;;5022754;28;20726;-64
2020/12/11 01:21:58;;;;;;;48.53;21.67;;;3.30;99.90;;;;;;5012913;28;21049;-66
2020/12/11 01:24:42;;;;;;;43.77;20.23;;;3.30;99.90;;;;;;5026780;28;20866;-65
2020/12/11 01:27:27;;;;;;;44.47;21.60;;;3.20;99.90;;;;;;5038484;28;21000;-66
2020/12/11 01:30:12;;;;;;;43.00;21.63;;;3.20;99.90;;;;;;5035721;28;20712;-64
2020/12/11 01:32:56;;;;;;;48.93;20.90;;;3.30;99.90;;;;;;5025981;28;20590;-65
2020/12/11 01:35:43;;;;;;;43.83;20.17;;;3.30;99.90;;;;;;5032360;28;20597;-65
2020/12/11 01:38:27;;;;;;;43.43;20.80;;;3.40;99.90;;;;;;5022123;28;20590;-66
2020/12/11 01:41:12;;;;;;;43.37;18.73;;;3.30;99.90;;;;;;5031376;28;21091;-65
2020/12/11 01:44:21;;;;;;;43.40;19.67;;;3.40;99.90;;;;;;5035780;28;20719;-64
2020/12/11 01:47:06;;;;;;;42.83;21.40;;;3.40;99.90;;;;;;5024581;28;20646;-65
2020/12/11 01:49:53;;;;;;;42.40;21.30;;;3.30;99.90;;;;;;5040141;28;20653;-66
2020/12/11 01:52:39;;;;;;;42.70;19.47;;;3.30;99.90;;;;;;5038735;28;20665;-66
2020/12/11 01:55:24;;;;;;;42.73;20.07;;;3.30;99.90;;;;;;5039252;28;20704;-65
2020/12/11 01:58:19;;;;;;;43.60;20.73;;;3.30;99.90;;;;;;5040326;28;20764;-65
2020/12/11 02:01:04;;;;;;;44.67;20.53;;;3.40;99.90;;;;;;5022974;28;20764;-66
2020/12/11 02:03:48;;;;;;;40.60;18.43;;;3.40;99.90;;;;;;5017531;28;21022;-65
2020/12/11 02:06:34;;;;;;;45.83;19.57;;;3.30;99.90;;;;;;5037987;28;20662;-65
2020/12/11 02:09:20;;;;;;;42.30;20.23;;;3.30;99.90;;;;;;5024508;28;20666;-65
2020/12/11 02:12:05;;;;;;;40.73;18.00;;;3.30;99.90;;;;;;5019211;28;20575;-65
2020/12/11 02:14:50;;;;;;;38.03;17.70;;;3.30;99.90;;;;;;5036994;28;20650;-66
2020/12/11 02:17:36;;;;;;;37.60;19.23;;;3.40;99.90;;;;;;5036075;28;21130;-66
2020/12/11 02:20:21;;;;;;;37.57;19.17;;;3.30;99.90;;;;;;5022358;28;22122;-65
2020/12/11 02:23:05;;;;;;;34.80;18.07;;;3.30;99.90;;;;;;5012312;28;20642;-66
2020/12/11 02:25:49;;;;;;;34.73;17.30;;;3.30;99.90;;;;;;5028185;28;20640;-65
2020/12/11 02:28:35;;;;;;;35.53;17.90;;;3.30;99.90;;;;;;5028939;28;20621;-66
2020/12/11 02:31:20;;;;;;;32.63;15.53;;;3.30;99.90;;;;;;5036783;28;20638;-65
2020/12/11 02:34:04;;;;;;;32.37;17.03;;;3.30;99.90;;;;;;5020416;28;20660;-67
2020/12/11 02:36:49;;;;;;;33.27;16.53;;;3.30;99.90;;;;;;5023695;28;20622;-67
2020/12/11 02:39:33;;;;;;;28.87;15.83;;;3.30;99.90;;;;;;5031942;28;20594;-66
2020/12/11 02:42:18;;;;;;;35.23;17.73;;;3.30;99.90;;;;;;5048525;28;21417;-67
2020/12/11 02:45:03;;;;;;;30.07;16.27;;;3.20;99.90;;;;;;5045512;28;20644;-67
2020/12/11 02:47:50;;;;;;;35.80;17.20;;;3.30;99.90;;;;;;5024550;28;20622;-67
2020/12/11 02:50:35;;;;;;;31.57;16.83;;;3.30;99.90;;;;;;5024055;28;20645;-67
2020/12/11 02:53:20;;;;;;;31.57;16.77;;;3.30;99.90;;;;;;5021016;28;20658;-67
2020/12/11 02:56:05;;;;;;;37.20;17.17;;;3.20;99.90;;;;;;5024132;28;20605;-68
2020/12/11 02:58:50;;;;;;;32.40;15.77;;;3.20;99.90;;;;;;5031329;28;20586;-67
2020/12/11 03:01:37;;;;;;;33.57;16.03;;;3.20;99.90;;;;;;5028177;28;20645;-67
2020/12/11 03:04:21;;;;;;;33.00;15.97;;;3.20;99.90;;;;;;5030563;28;20656;-67
2020/12/11 03:07:06;;;;;;;31.83;15.30;;;3.20;99.90;;;;;;5035984;28;20630;-66
2020/12/11 03:09:51;;;;;;;33.73;17.73;;;3.20;99.90;;;;;;5024581;28;20645;-67
2020/12/11 03:12:35;;;;;;;32.00;15.43;;;3.20;99.90;;;;;;5029832;28;20591;-67
2020/12/11 03:15:20;;;;;;;26.57;14.00;;;3.10;99.90;;;;;;5030783;28;20577;-67
2020/12/11 03:18:04;;;;;;;25.90;13.40;;;3.20;99.90;;;;;;5037614;28;20917;-67
2020/12/11 03:20:49;;;;;;;32.10;16.60;;;3.20;99.90;;;;;;5032942;28;21209;-67
2020/12/11 03:23:33;;;;;;;29.80;16.80;;;3.20;99.90;;;;;;5024873;28;20666;-67
2020/12/11 03:26:20;;;;;;;31.20;16.03;;;3.20;99.90;;;;;;5028430;28;20810;-67
2020/12/11 03:29:04;;;;;;;28.13;14.33;;;3.20;99.90;;;;;;5028418;28;20613;-67
2020/12/11 03:31:49;;;;;;;34.00;15.83;;;3.20;99.90;;;;;;5022155;28;20709;-67
2020/12/11 03:34:33;;;;;;;28.73;16.20;;;3.20;99.90;;;;;;5029436;28;20644;-67
2020/12/11 03:37:18;;;;;;;30.33;13.47;;;3.20;99.90;;;;;;5042443;28;20638;-67
2020/12/11 03:40:03;;;;;;;29.50;14.77;;;3.20;99.90;;;;;;5044670;28;20786;-67
2020/12/11 03:42:48;;;;;;;28.03;15.47;;;3.20;99.90;;;;;;5028983;28;21175;-67
2020/12/11 03:45:34;;;;;;;31.17;15.53;;;3.10;99.90;;;;;;5019067;28;21123;-67
2020/12/11 03:48:19;;;;;;;31.00;14.90;;;3.00;99.90;;;;;;5028351;28;20649;-67
2020/12/11 03:51:03;;;;;;;30.70;14.97;;;3.00;99.90;;;;;;5032279;28;20649;-67
2020/12/11 03:53:48;;;;;;;33.03;15.57;;;3.00;99.90;;;;;;5021787;28;20665;-67
2020/12/11 03:56:32;;;;;;;27.73;15.10;;;3.00;99.90;;;;;;5034400;28;20622;-67
2020/12/11 03:59:17;;;;;;;26.97;15.07;;;3.10;99.90;;;;;;5032050;28;21116;-67
2020/12/11 04:02:02;;;;;;;28.67;14.80;;;3.10;99.90;;;;;;5045957;28;21148;-66
2020/12/11 04:04:46;;;;;;;27.70;15.43;;;3.10;99.90;;;;;;5034040;28;20680;-67
2020/12/11 04:07:31;;;;;;;27.87;15.20;;;3.10;99.90;;;;;;5031404;28;20749;-68
2020/12/11 04:10:16;;;;;;;25.40;14.93;;;3.10;99.90;;;;;;5027338;28;20648;-68
2020/12/11 04:13:00;;;;;;;29.27;14.23;;;3.10;99.90;;;;;;5033377;28;20660;-69
2020/12/11 04:15:48;;;;;;;28.10;14.90;;;3.10;99.90;;;;;;5032144;28;20644;-71
2020/12/11 04:18:34;;;;;;;31.50;15.20;;;3.10;99.90;;;;;;5031796;28;20626;-68
2020/12/11 04:21:19;;;;;;;29.77;14.23;;;3.00;99.90;;;;;;5036680;28;21179;-68
2020/12/11 04:24:03;;;;;;;24.70;14.63;;;3.00;99.90;;;;;;5045586;28;20637;-69
2020/12/11 04:26:50;;;;;;;27.63;15.37;;;3.10;99.90;;;;;;5040754;28;20657;-69
2020/12/11 04:29:35;;;;;;;29.30;14.43;;;3.10;99.90;;;;;;5036305;28;20741;-67
2020/12/11 04:32:20;;;;;;;29.57;16.37;;;3.10;99.90;;;;;;5046704;28;20594;-68
2020/12/11 04:35:05;;;;;;;32.10;15.33;;;3.20;99.90;;;;;;5041650;28;20678;-68
2020/12/11 04:37:51;;;;;;;27.37;14.50;;;3.10;99.90;;;;;;5030876;28;21184;-68
2020/12/11 04:40:35;;;;;;;31.83;15.00;;;3.10;99.90;;;;;;5032821;28;20726;-68
2020/12/11 04:43:20;;;;;;;26.50;14.47;;;3.20;99.90;;;;;;5031033;28;21031;-68
2020/12/11 04:46:06;;;;;;;33.13;15.70;;;3.20;99.90;;;;;;5040659;28;20678;-68
2020/12/11 04:48:53;;;;;;;25.27;14.63;;;3.20;99.90;;;;;;5023494;28;20598;-68
2020/12/11 04:51:47;;;;;;;28.30;14.20;;;3.10;99.90;;;;;;5031198;28;20626;-68
2020/12/11 04:54:37;;;;;;;30.07;14.40;;;3.10;99.90;;;;;;5046445;28;20641;-68
2020/12/11 04:57:26;;;;;;;28.33;14.77;;;3.20;99.90;;;;;;5029543;28;20586;-68
2020/12/11 05:00:10;;;;;;;28.50;15.47;;;3.20;99.90;;;;;;5030524;28;20622;-68
2020/12/11 05:02:56;;;;;;;30.60;15.90;;;3.20;99.90;;;;;;5021586;28;20778;-68
2020/12/11 05:05:41;;;;;;;28.57;15.17;;;3.20;99.90;;;;;;5027680;28;20639;-68
2020/12/11 05:08:25;;;;;;;25.17;14.10;;;3.20;99.90;;;;;;5047160;28;20577;-69
2020/12/11 05:11:24;;;;;;;32.53;14.73;;;3.10;99.90;;;;;;5044701;28;20660;-68
2020/12/11 05:14:26;;;;;;;25.63;14.53;;;3.20;99.90;;;;;;5039740;28;20736;-68
2020/12/11 05:17:10;;;;;;;27.03;14.57;;;3.20;99.90;;;;;;5025680;28;20617;-68
2020/12/11 05:19:56;;;;;;;29.63;15.37;;;3.20;99.90;;;;;;5043764;28;20780;-68
2020/12/11 05:22:41;;;;;;;23.80;15.03;;;3.20;99.90;;;;;;5025220;28;20638;-68
2020/12/11 05:25:26;;;;;;;26.57;14.13;;;3.20;99.90;;;;;;5027009;28;20632;-68
2020/12/11 05:28:10;;;;;;;29.47;16.33;;;3.10;99.90;;;;;;5060491;28;20649;-68
2020/12/11 05:31:05;;;;;;;27.43;14.57;;;3.10;99.90;;;;;;5056052;28;20637;-68
2020/12/11 05:34:08;;;;;;;25.17;14.27;;;3.20;99.90;;;;;;5022573;28;21275;-68
2020/12/11 05:36:54;;;;;;;28.40;13.97;;;3.10;99.90;;;;;;5030675;28;20597;-68
2020/12/11 05:39:42;;;;;;;32.73;16.97;;;3.10;99.90;;;;;;5033493;28;20641;-67
2020/12/11 05:42:26;;;;;;;25.87;14.93;;;3.10;99.90;;;;;;5011722;28;20732;-66
2020/12/11 05:45:18;;;;;;;27.57;15.57;;;3.10;99.90;;;;;;5029211;28;20606;-67
2020/12/11 05:48:05;;;;;;;30.50;14.37;;;3.10;99.90;;;;;;5032092;28;20613;-68
2020/12/11 05:50:49;;;;;;;29.50;14.20;;;3.20;99.90;;;;;;5028458;28;20641;-67
2020/12/11 05:53:36;;;;;;;27.13;14.83;;;3.20;99.90;;;;;;5044183;28;20779;-67
2020/12/11 05:56:22;;;;;;;27.17;14.77;;;3.10;99.90;;;;;;5021575;28;20645;-67
2020/12/11 05:59:09;;;;;;;28.67;15.60;;;3.10;99.90;;;;;;5043667;28;20752;-68
2020/12/11 06:01:56;;;;;;;25.63;15.30;;;3.20;99.90;;;;;;5029000;28;20743;-67
2020/12/11 06:04:44;;;;;;;26.47;14.50;;;3.20;99.90;;;;;;5025483;28;20665;-67
2020/12/11 06:07:31;;;;;;;27.40;14.27;;;3.20;99.90;;;;;;5044370;28;20823;-67
2020/12/11 06:10:18;;;;;;;28.00;15.00;;;3.20;99.90;;;;;;5024964;28;20704;-68
2020/12/11 06:13:04;;;;;;;25.40;13.93;;;3.30;99.90;;;;;;5029648;28;21110;-68
2020/12/11 06:15:48;;;;;;;27.03;14.30;;;3.20;99.90;;;;;;5029798;28;20586;-68
2020/12/11 06:18:37;;;;;;;29.80;14.63;;;3.20;99.90;;;;;;5030608;28;20574;-68
2020/12/11 06:21:22;;;;;;;22.27;13.97;;;3.20;99.90;;;;;;5042741;28;20633;-68
2020/12/11 06:24:26;;;;;;;26.00;15.07;;;3.20;99.90;;;;;;5044698;28;20708;-65
2020/12/11 06:27:10;;;;;;;32.07;15.80;;;3.20;99.90;;;;;;5043371;28;20675;-66
2020/12/11 06:29:55;;;;;;;35.90;17.73;;;3.10;99.90;;;;;;5041897;28;20637;-66
2020/12/11 06:32:39;;;;;;;29.37;17.10;;;3.10;99.90;;;;;;5023264;28;20625;-65
2020/12/11 06:35:24;;;;;;;29.70;16.23;;;3.00;99.90;;;;;;5036213;28;20675;-65
2020/12/11 06:38:09;;;;;;;32.40;15.80;;;3.10;99.90;;;;;;5040245;28;20625;-66
2020/12/11 06:40:53;;;;;;;30.20;16.03;;;3.10;99.90;;;;;;5031856;28;20649;-66
2020/12/11 06:43:42;;;;;;;33.10;17.23;;;3.10;99.90;;;;;;5042705;28;20765;-66
2020/12/11 06:46:28;;;;;;;29.87;16.23;;;3.00;99.90;;;;;;5043700;28;20717;-65
2020/12/11 06:49:21;;;;;;;31.17;15.80;;;3.10;99.90;;;;;;5032452;28;21131;-65
2020/12/11 06:52:09;;;;;;;33.87;16.73;;;3.10;99.90;;;;;;5024086;28;21736;-66
2020/12/11 06:54:54;;;;;;;30.17;16.97;;;3.10;99.90;;;;;;5014083;28;20859;-65
2020/12/11 06:57:40;;;;;;;32.37;15.30;;;3.10;99.90;;;;;;5018630;28;20982;-66
2020/12/11 07:00:35;;;;;;;38.23;17.57;;;3.10;99.90;;;;;;5029587;28;20633;-67
2020/12/11 07:03:22;;;;;;;36.03;16.33;;;3.10;99.90;;;;;;5007215;28;20769;-64
2020/12/11 07:06:09;;;;;;;34.00;18.03;;;3.10;99.90;;;;;;5005019;28;20692;-65
2020/12/11 07:08:54;;;;;;;39.85;21.98;;;3.10;99.90;;;;;;5017199;28;20735;-66
2020/12/11 07:11:38;;;;;;;34.53;19.40;;;3.20;99.90;;;;;;5030046;28;20711;-65
2020/12/11 07:14:27;;;;;;;41.90;22.97;;;3.20;99.90;;;;;;5031928;28;20800;-67
2020/12/11 07:17:27;;;;;;;36.63;18.77;;;3.30;99.90;;;;;;5047693;28;20602;-66
2020/12/11 07:20:12;;;;;;;36.20;17.80;;;3.30;99.90;;;;;;5031294;28;20642;-66
2020/12/11 07:22:59;;;;;;;33.80;17.73;;;3.30;99.90;;;;;;5045031;28;20687;-66
2020/12/11 07:25:48;;;;;;;36.50;19.00;;;3.30;99.90;;;;;;5028454;28;20721;-65
2020/12/11 07:28:34;;;;;;;36.93;18.10;;;3.20;99.90;;;;;;5033096;28;20683;-69
2020/12/11 07:31:20;;;;;;;36.97;18.50;;;3.20;99.90;;;;;;5030347;28;20664;-67
2020/12/11 07:34:18;;;;;;;38.10;18.20;;;3.20;99.90;;;;;;5031104;28;20680;-67
2020/12/11 07:37:03;;;;;;;36.07;17.27;;;3.30;99.90;;;;;;5032272;28;20650;-66
2020/12/11 07:39:47;;;;;;;41.30;18.90;;;3.30;99.90;;;;;;5034265;28;20779;-67
2020/12/11 07:42:34;;;;;;;38.07;18.37;;;3.30;99.90;;;;;;5043645;28;22279;-66
2020/12/11 07:45:24;;;;;;;38.60;18.83;;;3.30;99.90;;;;;;5030278;28;20672;-67
2020/12/11 07:48:08;;;;;;;36.53;17.70;;;3.30;99.90;;;;;;5024406;28;20634;-67
2020/12/11 07:51:00;;;;;;;39.20;20.17;;;3.30;99.90;;;;;;5031787;28;21176;-67
2020/12/11 07:53:53;;;;;;;42.50;20.37;;;3.40;99.90;;;;;;5036977;28;20735;-67
2020/12/11 07:56:39;;;;;;;40.23;19.03;;;3.50;99.90;;;;;;5044941;28;20736;-67
2020/12/11 07:59:23;;;;;;;38.00;19.23;;;3.50;99.90;;;;;;5040509;28;21318;-67
2020/12/11 08:02:12;;;;;;;39.87;19.17;;;3.50;99.90;;;;;;5019390;28;20701;-67
2020/12/11 08:04:57;;;;;;;48.13;19.53;;;3.50;99.90;;;;;;5030769;28;20713;-67
2020/12/11 08:07:41;;;;;;;45.87;21.50;;;3.50;99.90;;;;;;5046067;28;20855;-66
2020/12/11 08:10:35;;;;;;;40.57;20.27;;;3.50;99.90;;;;;;5037477;28;20633;-66
2020/12/11 08:13:21;;;;;;;40.30;19.20;;;3.40;99.90;;;;;;5032842;28;20657;-66
2020/12/11 08:16:06;;;;;;;49.60;21.93;;;3.30;99.90;;;;;;5048165;28;20636;-66
2020/12/11 08:18:50;;;;;;;34.87;18.67;;;3.30;99.90;;;;;;5052375;28;20602;-65
2020/12/11 08:21:35;;;;;;;42.83;22.43;;;3.40;99.90;;;;;;5066006;28;20724;-65
2020/12/11 08:24:29;;;;;;;45.90;21.00;;;3.30;99.90;;;;;;5066263;28;20711;-66
2020/12/11 08:27:21;;;;;;;46.37;20.83;;;3.30;99.90;;;;;;5039948;28;20614;-66
2020/12/11 08:30:15;;;;;;;38.37;18.87;;;3.20;99.90;;;;;;5034429;28;20729;-66
2020/12/11 08:33:08;;;;;;;43.50;20.67;;;3.20;99.90;;;;;;5034318;28;20629;-65
2020/12/11 08:35:56;;;;;;;43.27;20.97;;;3.20;99.90;;;;;;5035299;28;20586;-65
2020/12/11 08:38:40;;;;;;;51.33;22.60;;;3.20;99.90;;;;;;5046810;28;20663;-66
2020/12/11 08:41:28;;;;;;;50.77;21.30;;;3.20;99.90;;;;;;5033446;28;20638;-65
2020/12/11 08:47:39;;;;;;;43.70;20.80;;;3.20;99.90;;;;;;5015921;28;20633;-66
2020/12/11 08:50:40;;;;;;;43.37;20.80;;;3.20;99.90;;;;;;5029874;28;20625;-66
2020/12/11 08:53:27;;;;;;;55.53;23.83;;;3.20;99.90;;;;;;5039853;28;20632;-65
2020/12/11 08:56:12;;;;;;;42.80;21.20;;;3.20;99.90;;;;;;5050214;28;20597;-66
2020/12/11 08:58:56;;;;;;;47.13;20.93;;;3.20;99.90;;;;;;5034103;28;20989;-66
2020/12/11 09:01:41;;;;;;;48.67;20.67;;;3.30;99.90;;;;;;5032291;28;20741;-65
2020/12/11 09:04:26;;;;;;;43.10;20.67;;;3.30;99.90;;;;;;5045167;28;20727;-66
2020/12/11 09:07:12;;;;;;;41.93;21.07;;;3.30;99.90;;;;;;5047971;28;21136;-65
2020/12/11 09:09:56;;;;;;;47.03;20.93;;;3.40;99.90;;;;;;5020898;28;21010;-66
2020/12/11 09:12:41;;;;;;;49.63;22.77;;;3.40;99.90;;;;;;5051134;28;20927;-65
2020/12/11 09:15:25;;;;;;;37.07;19.17;;;3.40;99.90;;;;;;5037882;28;20593;-66
2020/12/11 09:18:10;;;;;;;47.57;21.07;;;3.40;99.90;;;;;;5035485;28;20621;-66
2020/12/11 09:20:54;;;;;;;42.03;20.77;;;3.40;99.90;;;;;;5046166;28;21492;-66
2020/12/11 09:23:39;;;;;;;39.77;19.70;;;3.30;99.90;;;;;;5023448;28;20727;-65
2020/12/11 09:26:26;;;;;;;46.63;19.87;;;3.30;99.90;;;;;;5037193;28;20688;-66
2020/12/11 09:29:24;;;;;;;44.07;20.20;;;3.40;99.90;;;;;;5051110;28;20620;-66
2020/12/11 09:32:14;;;;;;;42.73;19.03;;;3.40;99.90;;;;;;5035631;28;20647;-65
2020/12/11 09:34:59;;;;;;;47.87;21.90;;;3.40;99.90;;;;;;5050532;28;20658;-65
2020/12/11 09:37:49;;;;;;;42.30;20.10;;;3.30;99.90;;;;;;5037770;28;21070;-66
2020/12/11 09:40:42;;;;;;;47.70;21.70;;;3.40;99.90;;;;;;5052524;28;20641;-66
2020/12/11 09:44:06;;;;;;;40.20;22.43;;;3.40;99.90;;;;;;5051156;28;20645;-66
2020/12/11 09:46:44;;;;;;;47.33;20.63;;;3.30;99.90;;;;;;5053252;28;20652;-66
2020/12/11 09:49:43;;;;;;;45.40;21.10;;;3.40;99.90;;;;;;5051878;28;20602;-68
2020/12/11 09:52:50;;;;;;;46.13;20.70;;;3.30;99.90;;;;;;5048022;28;21156;-65
2020/12/11 09:55:44;;;;;;;43.60;21.20;;;3.40;99.90;;;;;;5050433;28;20597;-66
2020/12/11 09:58:29;;;;;;;50.17;22.63;;;3.30;99.90;;;;;;5050396;28;20743;-66
2020/12/11 10:01:20;;;;;;;42.60;22.60;;;3.20;99.90;;;;;;5021802;28;20641;-66
2020/12/11 10:04:05;;;;;;;46.97;22.47;;;3.20;99.90;;;;;;5052377;28;20622;-65
2020/12/11 10:06:49;;;;;;;39.50;20.93;;;3.20;99.90;;;;;;5033898;28;20602;-66
2020/12/11 10:09:34;;;;;;;41.50;18.53;;;3.20;99.90;;;;;;5032439;28;20613;-65
2020/12/11 10:12:22;;;;;;;53.33;23.47;;;3.30;99.90;;;;;;5036952;28;20744;-65
2020/12/11 10:15:08;;;;;;;45.77;20.97;;;3.30;99.90;;;;;;5048486;28;20720;-65
2020/12/11 10:17:53;;;;;;;40.63;20.83;;;3.20;99.90;;;;;;5051141;28;20676;-66
2020/12/11 10:20:39;;;;;;;44.13;21.47;;;3.30;99.90;;;;;;5050214;28;21241;-65
2020/12/11 10:23:28;;;;;;;47.60;21.63;;;3.40;99.90;;;;;;5049158;28;20661;-66
2020/12/11 10:26:13;;;;;;;42.60;19.73;;;3.40;99.90;;;;;;5052780;28;20656;-66
2020/12/11 10:28:57;;;;;;;46.57;21.67;;;3.40;99.90;;;;;;5039201;28;20719;-65
2020/12/11 10:31:42;;;;;;;39.17;19.67;;;3.40;99.90;;;;;;5037071;28;20637;-68
2020/12/11 10:34:27;;;;;;;48.20;20.93;;;3.30;99.90;;;;;;5038078;28;21243;-65
2020/12/11 10:37:12;;;;;;;36.33;19.87;;;3.40;99.90;;;;;;5049766;28;20725;-66
2020/12/11 10:39:57;;;;;;;42.47;20.63;;;3.40;99.90;;;;;;5050239;28;20708;-68
2020/12/11 10:42:41;;;;;;;44.63;21.17;;;3.30;99.90;;;;;;5035930;28;20562;-65
2020/12/11 10:45:26;;;;;;;45.57;21.20;;;3.30;99.90;;;;;;5050778;28;20602;-65
2020/12/11 10:48:10;;;;;;;40.43;20.60;;;3.30;99.90;;;;;;5047629;28;20618;-65
2020/12/11 10:50:54;;;;;;;42.03;21.60;;;3.20;99.90;;;;;;5049861;28;20700;-66
2020/12/11 10:53:44;;;;;;;45.93;21.10;;;3.30;99.90;;;;;;5044320;28;21051;-65
2020/12/11 10:56:29;;;;;;;47.60;22.80;;;3.30;99.90;;;;;;5046541;28;21032;-66
2020/12/11 10:59:14;;;;;;;45.93;22.20;;;3.40;99.90;;;;;;5037263;28;20566;-66
2020/12/11 11:02:01;;;;;;;42.47;20.80;;;3.40;99.90;;;;;;5035853;28;20727;-65
2020/12/11 11:04:45;;;;;;;46.20;21.23;;;3.40;99.90;;;;;;5035674;28;20716;-66
2020/12/11 11:07:31;;;;;;;39.60;21.27;;;3.40;99.90;;;;;;5049203;28;20625;-66
2020/12/11 11:11:01;;;;;;;47.63;20.80;;;3.40;99.90;;;;;;5029299;28;20625;-66
2020/12/11 11:13:37;;;;;;;47.50;22.40;;;3.40;99.90;;;;;;5048280;28;20645;-66
2020/12/11 11:16:43;;;;;;;43.53;20.83;;;3.40;99.90;;;;;;5044504;28;20614;-65
2020/12/11 11:28:09;;;;;;;45.07;20.73;;;3.50;99.90;;;;;;5051145;28;20784;-66
2020/12/11 11:30:54;;;;;;;40.63;19.63;;;3.40;99.90;;;;;;5036516;28;20676;-66
2020/12/11 11:33:38;;;;;;;41.83;20.77;;;3.50;99.90;;;;;;5035039;28;20739;-65
2020/12/11 11:36:23;;;;;;;38.67;19.77;;;3.50;99.90;;;;;;5051198;28;20601;-65
2020/12/11 11:39:07;;;;;;;39.77;20.53;;;3.60;99.90;;;;;;5056970;28;20931;-65
2020/12/11 11:41:56;;;;;;;39.93;20.80;;;3.60;99.90;;;;;;5028354;28;20645;-65
2020/12/11 11:44:59;;;;;;;43.50;20.70;;;3.60;99.90;;;;;;5050930;28;20657;-67
2020/12/11 11:47:49;;;;;;;42.50;20.70;;;3.60;99.90;;;;;;5024225;28;20626;-67
2020/12/11 11:53:22;;;;;;;45.17;20.83;;;3.70;99.90;;;;;;5046844;28;20613;-66
2020/12/11 11:56:09;;;;;;;45.87;21.20;;;3.70;99.90;;;;;;5050972;28;20932;-67
2020/12/11 11:58:53;;;;;;;45.40;21.60;;;3.70;99.90;;;;;;5052430;28;20632;-67
2020/12/11 12:01:38;;;;;;;40.83;21.17;;;3.70;99.90;;;;;;5038199;28;20637;-66
2020/12/11 12:04:23;;;;;;;44.00;23.00;;;3.70;99.90;;;;;;5033616;28;21124;-66
2020/12/11 12:07:08;;;;;;;49.53;22.60;;;3.70;99.90;;;;;;5040176;28;20593;-65
2020/12/11 12:09:53;;;;;;;47.90;21.63;;;3.70;99.90;;;;;;5045527;28;20642;-65
2020/12/11 12:12:41;;;;;;;46.00;22.50;;;3.70;99.90;;;;;;5046578;28;21104;-66
2020/12/11 12:15:28;;;;;;;45.50;21.80;;;3.70;99.90;;;;;;5054558;28;20636;-66
2020/12/11 12:18:14;;;;;;;47.27;22.60;;;3.80;99.90;;;;;;5047857;28;20597;-66
2020/12/11 12:21:09;;;;;;;49.27;23.60;;;3.80;99.90;;;;;;5035547;28;20634;-66
2020/12/11 12:27:22;;;;;;;52.47;24.50;;;3.70;99.90;;;;;;5044878;28;20645;-66
2020/12/11 12:30:27;;;;;;;52.63;24.37;;;3.60;99.90;;;;;;4966669;28;20804;-66
2020/12/11 12:36:48;;;;;;;52.70;23.60;;;3.70;99.90;;;;;;5046399;28;20633;-66
2020/12/11 12:45:33;;;;;;;42.63;21.50;;;3.70;99.90;;;;;;5044041;28;20668;-66
2020/12/11 12:48:18;;;;;;;44.97;21.57;;;3.70;99.90;;;;;;5032254;28;20653;-66
2020/12/11 12:51:02;;;;;;;51.13;24.70;;;3.70;99.90;;;;;;5028738;28;20649;-66
2020/12/11 12:53:47;;;;;;;46.90;22.50;;;3.80;99.90;;;;;;5031792;28;20657;-66
2020/12/11 12:56:40;;;;;;;47.80;22.20;;;3.80;99.90;;;;;;5035281;28;20636;-66
2020/12/11 13:05:13;;;;;;;42.20;21.20;;;3.90;99.90;;;;;;5050389;28;20632;-66
2020/12/11 13:08:02;;;;;;;45.20;21.90;;;3.90;99.90;;;;;;5034484;28;21009;-65
2020/12/11 13:10:46;;;;;;;45.87;22.67;;;3.90;99.90;;;;;;5025440;28;20741;-66
2020/12/11 13:13:31;;;;;;;47.53;22.17;;;3.90;99.90;;;;;;5037493;28;21001;-66
2020/12/11 13:16:15;;;;;;;43.63;22.90;;;3.90;99.90;;;;;;5034089;28;20656;-66
2020/12/11 13:19:03;;;;;;;41.20;21.77;;;3.90;99.90;;;;;;5034914;28;20664;-66
2020/12/11 13:22:05;;;;;;;43.83;22.00;;;3.80;99.90;;;;;;5036853;28;20720;-66
2020/12/11 13:27:53;;;;;;;44.33;21.30;;;3.80;99.90;;;;;;5036837;28;20675;-66
2020/12/11 13:30:37;;;;;;;40.53;21.50;;;3.90;99.90;;;;;;5032514;28;21126;-66
2020/12/11 13:33:22;;;;;;;43.97;22.20;;;3.80;99.90;;;;;;5032710;28;20664;-66
2020/12/11 13:36:08;;;;;;;46.60;22.73;;;3.80;99.90;;;;;;5033879;28;20709;-65
2020/12/11 13:38:53;;;;;;;39.13;21.00;;;3.80;99.90;;;;;;5032158;28;20704;-66
2020/12/11 13:41:37;;;;;;;42.30;21.53;;;3.90;99.90;;;;;;5032178;28;20745;-66
2020/12/11 13:44:21;;;;;;;41.37;22.37;;;3.90;99.90;;;;;;5048979;28;20757;-66
2020/12/11 13:47:07;;;;;;;47.00;21.70;;;4.00;99.90;;;;;;5032899;28;20676;-66
2020/12/11 13:49:51;;;;;;;48.20;21.53;;;3.90;99.90;;;;;;5033065;28;20733;-66
2020/12/11 13:52:36;;;;;;;46.93;22.07;;;3.90;99.90;;;;;;5049940;28;20574;-66
2020/12/11 13:55:20;;;;;;;41.83;21.00;;;3.90;99.90;;;;;;5038111;28;20701;-66
2020/12/11 13:58:12;;;;;;;42.73;21.63;;;3.80;99.90;;;;;;5051499;28;20586;-66
2020/12/11 14:00:57;;;;;;;45.73;22.43;;;3.80;99.90;;;;;;5049950;28;21222;-66
2020/12/11 14:03:42;;;;;;;40.90;21.17;;;3.80;99.90;;;;;;5038968;28;21254;-65
2020/12/11 14:06:30;;;;;;;42.80;22.13;;;3.80;99.90;;;;;;5041088;28;20610;-66
2020/12/11 14:09:14;;;;;;;45.87;21.53;;;3.80;99.90;;;;;;5033255;28;20649;-66
2020/12/11 14:12:00;;;;;;;47.83;20.70;;;3.70;99.90;;;;;;5034796;28;20637;-66
2020/12/11 14:14:47;;;;;;;44.90;20.87;;;3.70;99.90;;;;;;5033180;28;21264;-66
2020/12/11 14:23:24;;;;;;;47.20;21.73;;;3.60;99.90;;;;;;5051478;28;21561;-66
2020/12/11 14:26:09;;;;;;;39.90;21.50;;;3.60;99.90;;;;;;5050589;28;20601;-66
2020/12/11 14:28:53;;;;;;;44.67;21.67;;;3.60;99.90;;;;;;5033386;28;20637;-66
2020/12/11 14:31:38;;;;;;;39.63;21.03;;;3.60;99.90;;;;;;5039778;28;20968;-65
2020/12/11 14:34:26;;;;;;;41.20;21.40;;;3.60;99.90;;;;;;5039690;28;20715;-67
2020/12/11 14:37:10;;;;;;;37.80;20.73;;;3.60;99.90;;;;;;5048784;28;20617;-68
2020/12/11 14:39:55;;;;;;;39.53;19.47;;;3.60;99.90;;;;;;5038556;28;20633;-68
2020/12/11 14:42:40;;;;;;;40.17;21.30;;;3.50;99.90;;;;;;5049980;28;21000;-68
2020/12/11 14:45:25;;;;;;;43.10;20.23;;;3.50;99.90;;;;;;5034582;28;21327;-67
2020/12/11 14:48:10;;;;;;;38.47;21.33;;;3.50;99.90;;;;;;5037391;28;20760;-67
2020/12/11 14:50:55;;;;;;;40.70;21.17;;;3.50;99.90;;;;;;5051253;28;20664;-68
2020/12/11 14:53:40;;;;;;;36.63;19.53;;;3.50;99.90;;;;;;5072210;28;20677;-68
2020/12/11 14:56:25;;;;;;;36.23;20.07;;;3.50;99.90;;;;;;5037211;28;20656;-67
2020/12/11 14:59:12;;;;;;;42.40;21.57;;;3.50;99.90;;;;;;5046386;28;20618;-67